Terminal Aerodrome Forecast
Issued by NWS Binghamton, NY

Home | Current Version | Previous Version | Text Only | Print | Product List | Glossary On
Versions: 1 2 3 4 5 6 7 8 9 10 11 12 13 14 15 16 17 18 19 20 21
000
FTUS41 KBGM 262300
TAFSYR
TAF
KSYR 262330Z 2700/2724 29005KT 3SM -RASN BR SCT005 OVC015
      TEMPO 2700/2702 OVC005
     FM270200 29005KT 5SM -SHSN BR OVC008
     FM270800 29008KT P6SM OVC015
     FM271800 31010KT P6SM OVC025=

USA.gov is the U.S. government's official web portal to all federal, state and local government web resources and services.